sensor_id;sensor_type;location;lat;lon;timestamp;noise_LAeq;noise_LA_min;noise_LA_max;noise_LA01;noise_LA95
40103;Laerm;25814;48.550;9.108;2023-02-01T00:00:48;30.68;29.56;33.07;;
40103;Laerm;25814;48.550;9.108;2023-02-01T00:03:14;30.75;29.56;36.90;;
40103;Laerm;25814;48.550;9.108;2023-02-01T00:05:41;31.15;29.52;40.00;;
40103;Laerm;25814;48.550;9.108;2023-02-01T00:08:08;30.60;29.42;33.36;;
40103;Laerm;25814;48.550;9.108;2023-02-01T00:10:35;30.47;29.31;32.79;;
40103;Laerm;25814;48.550;9.108;2023-02-01T00:13:01;30.81;29.56;34.97;;
40103;Laerm;25814;48.550;9.108;2023-02-01T00:15:27;30.63;29.37;39.93;;
40103;Laerm;25814;48.550;9.108;2023-02-01T00:17:55;30.51;29.34;32.13;;
40103;Laerm;25814;48.550;9.108;2023-02-01T00:20:22;31.31;29.49;33.67;;
40103;Laerm;25814;48.550;9.108;2023-02-01T00:22:48;32.70;30.92;34.26;;
40103;Laerm;25814;48.550;9.108;2023-02-01T00:25:14;31.93;29.29;40.12;;
40103;Laerm;25814;48.550;9.108;2023-02-01T00:27:40;30.23;29.07;36.75;;
40103;Laerm;25814;48.550;9.108;2023-02-01T00:30:07;30.77;29.32;42.60;;
40103;Laerm;25814;48.550;9.108;2023-02-01T00:32:35;30.42;29.36;39.28;;
40103;Laerm;25814;48.550;9.108;2023-02-01T00:35:02;32.86;29.90;40.41;;
40103;Laerm;25814;48.550;9.108;2023-02-01T00:37:28;30.57;29.37;36.65;;
40103;Laerm;25814;48.550;9.108;2023-02-01T00:39:54;30.32;29.19;32.90;;
40103;Laerm;25814;48.550;9.108;2023-02-01T00:42:21;30.37;29.30;36.91;;
40103;Laerm;25814;48.550;9.108;2023-02-01T00:44:47;30.48;29.39;38.65;;
40103;Laerm;25814;48.550;9.108;2023-02-01T00:47:13;30.64;29.49;38.14;;
40103;Laerm;25814;48.550;9.108;2023-02-01T00:49:40;31.17;29.26;37.81;;
40103;Laerm;25814;48.550;9.108;2023-02-01T00:52:06;33.93;29.84;54.38;;
40103;Laerm;25814;48.550;9.108;2023-02-01T00:54:33;34.14;31.59;54.64;;
40103;Laerm;25814;48.550;9.108;2023-02-01T00:57:00;31.55;29.45;41.59;;
40103;Laerm;25814;48.550;9.108;2023-02-01T00:59:26;32.82;29.40;41.43;;
40103;Laerm;25814;48.550;9.108;2023-02-01T01:01:52;30.69;29.43;32.80;;
40103;Laerm;25814;48.550;9.108;2023-02-01T01:04:19;31.00;29.16;38.39;;
40103;Laerm;25814;48.550;9.108;2023-02-01T01:06:46;30.56;29.43;32.56;;
40103;Laerm;25814;48.550;9.108;2023-02-01T01:09:12;31.33;29.61;36.80;;
40103;Laerm;25814;48.550;9.108;2023-02-01T01:11:38;30.87;29.32;38.03;;
40103;Laerm;25814;48.550;9.108;2023-02-01T01:14:08;34.35;29.45;47.51;;
40103;Laerm;25814;48.550;9.108;2023-02-01T01:16:35;32.28;29.38;57.22;;
40103;Laerm;25814;48.550;9.108;2023-02-01T01:19:02;30.73;29.48;42.22;;
40103;Laerm;25814;48.550;9.108;2023-02-01T01:21:30;31.77;29.42;50.97;;
40103;Laerm;25814;48.550;9.108;2023-02-01T01:23:57;33.23;30.37;46.64;;
40103;Laerm;25814;48.550;9.108;2023-02-01T01:26:26;32.65;29.66;34.27;;
40103;Laerm;25814;48.550;9.108;2023-02-01T01:28:56;30.91;29.43;40.76;;
40103;Laerm;25814;48.550;9.108;2023-02-01T01:31:23;30.67;29.37;42.37;;
40103;Laerm;25814;48.550;9.108;2023-02-01T01:33:56;30.36;29.38;34.14;;
40103;Laerm;25814;48.550;9.108;2023-02-01T01:36:26;30.30;29.29;32.47;;
40103;Laerm;25814;48.550;9.108;2023-02-01T01:38:52;30.38;29.40;32.59;;
40103;Laerm;25814;48.550;9.108;2023-02-01T01:41:28;30.34;29.19;31.94;;
40103;Laerm;25814;48.550;9.108;2023-02-01T01:44:01;30.48;29.30;32.32;;
40103;Laerm;25814;48.550;9.108;2023-02-01T01:46:37;30.96;29.21;34.20;;
40103;Laerm;25814;48.550;9.108;2023-02-01T01:49:13;30.23;29.17;31.98;;
40103;Laerm;25814;48.550;9.108;2023-02-01T01:51:51;31.33;29.25;42.29;;
40103;Laerm;25814;48.550;9.108;2023-02-01T01:54:43;31.13;29.34;34.20;;
40103;Laerm;25814;48.550;9.108;2023-02-01T01:57:25;32.66;31.39;34.15;;
40103;Laerm;25814;48.550;9.108;2023-02-01T02:00:03;31.21;29.23;34.86;;
40103;Laerm;25814;48.550;9.108;2023-02-01T02:02:32;31.18;29.48;34.85;;
40103;Laerm;25814;48.550;9.108;2023-02-01T02:04:59;30.44;29.44;31.99;;
40103;Laerm;25814;48.550;9.108;2023-02-01T02:07:33;30.30;29.29;32.22;;
40103;Laerm;25814;48.550;9.108;2023-02-01T02:10:08;30.50;29.35;33.51;;
40103;Laerm;25814;48.550;9.108;2023-02-01T02:12:40;31.18;29.30;38.80;;
40103;Laerm;25814;48.550;9.108;2023-02-01T02:15:11;30.80;29.55;33.08;;
40103;Laerm;25814;48.550;9.108;2023-02-01T02:18:15;30.86;29.36;35.43;;
40103;Laerm;25814;48.550;9.108;2023-02-01T02:24:34;30.17;29.20;32.15;;
40103;Laerm;25814;48.550;9.108;2023-02-01T02:30:52;32.78;29.94;35.07;;
40103;Laerm;25814;48.550;9.108;2023-02-01T02:42:18;34.51;29.49;56.69;;
40103;Laerm;25814;48.550;9.108;2023-02-01T02:45:42;32.19;29.33;44.31;;
40103;Laerm;25814;48.550;9.108;2023-02-01T02:48:42;34.90;29.40;53.33;;
40103;Laerm;25814;48.550;9.108;2023-02-01T02:51:29;30.50;29.35;38.02;;
40103;Laerm;25814;48.550;9.108;2023-02-01T02:54:24;32.41;29.45;50.09;;
40103;Laerm;25814;48.550;9.108;2023-02-01T02:57:24;32.87;29.55;48.59;;
40103;Laerm;25814;48.550;9.108;2023-02-01T03:00:19;35.61;31.65;54.78;;
40103;Laerm;25814;48.550;9.108;2023-02-01T03:03:06;31.55;29.81;37.77;;
40103;Laerm;25814;48.550;9.108;2023-02-01T03:05:52;31.62;29.48;47.47;;
40103;Laerm;25814;48.550;9.108;2023-02-01T03:08:27;31.02;29.48;38.40;;
40103;Laerm;25814;48.550;9.108;2023-02-01T03:11:08;31.72;29.31;52.31;;
40103;Laerm;25814;48.550;9.108;2023-02-01T03:19:26;31.26;29.59;36.43;;
40103;Laerm;25814;48.550;9.108;2023-02-01T03:22:06;30.83;29.60;39.92;;
40103;Laerm;25814;48.550;9.108;2023-02-01T03:24:55;30.84;29.52;41.62;;
40103;Laerm;25814;48.550;9.108;2023-02-01T03:27:35;31.05;29.56;47.08;;
40103;Laerm;25814;48.550;9.108;2023-02-01T03:30:22;32.28;29.82;34.79;;
40103;Laerm;25814;48.550;9.108;2023-02-01T03:32:55;32.77;30.41;34.69;;
40103;Laerm;25814;48.550;9.108;2023-02-01T03:35:43;30.89;29.81;33.96;;
40103;Laerm;25814;48.550;9.108;2023-02-01T03:44:16;31.80;30.50;36.28;;
40103;Laerm;25814;48.550;9.108;2023-02-01T03:47:04;33.18;30.46;45.81;;
40103;Laerm;25814;48.550;9.108;2023-02-01T03:52:09;32.49;30.70;36.00;;
40103;Laerm;25814;48.550;9.108;2023-02-01T03:54:38;32.64;30.75;39.84;;
40103;Laerm;25814;48.550;9.108;2023-02-01T03:57:11;32.09;30.78;39.11;;
40103;Laerm;25814;48.550;9.108;2023-02-01T03:59:44;31.48;30.24;43.01;;
40103;Laerm;25814;48.550;9.108;2023-02-01T04:02:11;33.06;30.92;39.91;;
40103;Laerm;25814;48.550;9.108;2023-02-01T04:04:38;34.19;32.50;38.47;;
40103;Laerm;25814;48.550;9.108;2023-02-01T04:07:04;32.58;31.04;35.85;;
40103;Laerm;25814;48.550;9.108;2023-02-01T04:09:30;33.46;31.43;39.93;;
40103;Laerm;25814;48.550;9.108;2023-02-01T04:11:56;33.18;31.52;39.99;;
40103;Laerm;25814;48.550;9.108;2023-02-01T04:14:23;32.64;31.21;35.24;;
40103;Laerm;25814;48.550;9.108;2023-02-01T04:16:49;32.59;31.17;35.15;;
40103;Laerm;25814;48.550;9.108;2023-02-01T04:19:16;32.34;31.21;34.32;;
40103;Laerm;25814;48.550;9.108;2023-02-01T04:21:42;32.74;31.37;37.75;;
40103;Laerm;25814;48.550;9.108;2023-02-01T04:24:08;33.43;31.55;44.74;;
40103;Laerm;25814;48.550;9.108;2023-02-01T04:26:34;32.73;31.46;35.04;;
40103;Laerm;25814;48.550;9.108;2023-02-01T04:29:01;33.71;31.97;37.87;;
40103;Laerm;25814;48.550;9.108;2023-02-01T04:31:27;34.80;32.44;39.88;;
40103;Laerm;25814;48.550;9.108;2023-02-01T04:33:55;34.73;32.87;44.36;;
40103;Laerm;25814;48.550;9.108;2023-02-01T04:36:24;34.15;31.92;43.42;;
40103;Laerm;25814;48.550;9.108;2023-02-01T04:38:51;35.21;32.33;46.70;;
40103;Laerm;25814;48.550;9.108;2023-02-01T04:41:19;34.88;31.51;60.28;;
40103;Laerm;25814;48.550;9.108;2023-02-01T04:43:47;33.76;31.73;45.53;;
40103;Laerm;25814;48.550;9.108;2023-02-01T04:46:14;35.58;32.12;54.43;;
40103;Laerm;25814;48.550;9.108;2023-02-01T04:48:41;33.04;31.47;35.59;;
40103;Laerm;25814;48.550;9.108;2023-02-01T04:51:08;33.86;31.80;41.95;;
40103;Laerm;25814;48.550;9.108;2023-02-01T04:53:35;34.99;31.25;49.44;;
40103;Laerm;25814;48.550;9.108;2023-02-01T04:56:02;33.99;31.45;41.95;;
40103;Laerm;25814;48.550;9.108;2023-02-01T04:58:28;35.95;32.07;46.70;;
40103;Laerm;25814;48.550;9.108;2023-02-01T05:00:54;34.72;31.82;43.10;;
40103;Laerm;25814;48.550;9.108;2023-02-01T05:03:20;37.12;33.79;47.52;;
40103;Laerm;25814;48.550;9.108;2023-02-01T05:05:48;35.71;33.73;44.61;;
40103;Laerm;25814;48.550;9.108;2023-02-01T05:08:15;36.20;32.55;46.95;;
40103;Laerm;25814;48.550;9.108;2023-02-01T05:10:41;35.97;32.61;44.41;;
40103;Laerm;25814;48.550;9.108;2023-02-01T05:13:09;35.78;33.51;42.79;;
40103;Laerm;25814;48.550;9.108;2023-02-01T05:15:54;38.83;33.46;57.58;;
40103;Laerm;25814;48.550;9.108;2023-02-01T05:18:20;37.19;34.93;45.50;;
40103;Laerm;25814;48.550;9.108;2023-02-01T05:20:46;36.41;33.36;42.71;;
40103;Laerm;25814;48.550;9.108;2023-02-01T05:23:13;35.62;32.98;44.92;;
40103;Laerm;25814;48.550;9.108;2023-02-01T05:25:39;36.46;33.53;51.16;;
40103;Laerm;25814;48.550;9.108;2023-02-01T05:28:05;38.63;33.60;52.75;;
40103;Laerm;25814;48.550;9.108;2023-02-01T05:30:32;39.60;37.00;47.48;;
40103;Laerm;25814;48.550;9.108;2023-02-01T05:33:01;38.90;36.77;42.54;;
40103;Laerm;25814;48.550;9.108;2023-02-01T05:35:27;39.71;37.15;48.33;;
40103;Laerm;25814;48.550;9.108;2023-02-01T05:37:53;38.56;36.57;42.84;;
40103;Laerm;25814;48.550;9.108;2023-02-01T05:40:20;37.97;34.39;47.35;;
40103;Laerm;25814;48.550;9.108;2023-02-01T05:42:46;36.99;33.93;47.93;;
40103;Laerm;25814;48.550;9.108;2023-02-01T05:45:12;38.33;34.64;54.99;;
40103;Laerm;25814;48.550;9.108;2023-02-01T05:47:39;37.83;35.25;50.62;;
40103;Laerm;25814;48.550;9.108;2023-02-01T05:50:06;39.98;35.16;58.10;;
40103;Laerm;25814;48.550;9.108;2023-02-01T05:52:32;38.33;34.94;49.73;;
40103;Laerm;25814;48.550;9.108;2023-02-01T05:54:59;36.63;33.94;43.33;;
40103;Laerm;25814;48.550;9.108;2023-02-01T05:57:25;37.99;35.09;57.49;;
40103;Laerm;25814;48.550;9.108;2023-02-01T05:59:51;38.19;33.29;47.97;;
40103;Laerm;25814;48.550;9.108;2023-02-01T06:02:17;37.08;34.32;48.16;;
40103;Laerm;25814;48.550;9.108;2023-02-01T06:04:44;38.00;34.21;46.46;;
40103;Laerm;25814;48.550;9.108;2023-02-01T06:07:10;36.67;34.03;42.18;;
40103;Laerm;25814;48.550;9.108;2023-02-01T06:09:37;38.41;35.19;44.87;;
40103;Laerm;25814;48.550;9.108;2023-02-01T06:12:04;37.18;34.90;44.38;;
40103;Laerm;25814;48.550;9.108;2023-02-01T06:14:30;41.25;34.84;62.34;;
40103;Laerm;25814;48.550;9.108;2023-02-01T06:16:57;38.48;35.34;46.82;;
40103;Laerm;25814;48.550;9.108;2023-02-01T06:19:23;38.36;33.95;50.37;;
40103;Laerm;25814;48.550;9.108;2023-02-01T06:21:49;41.53;35.33;62.80;;
40103;Laerm;25814;48.550;9.108;2023-02-01T06:24:16;41.48;35.38;56.57;;
40103;Laerm;25814;48.550;9.108;2023-02-01T06:26:42;42.20;36.06;54.81;;
40103;Laerm;25814;48.550;9.108;2023-02-01T06:29:12;38.82;34.88;50.05;;
40103;Laerm;25814;48.550;9.108;2023-02-01T06:31:38;38.88;35.98;50.87;;
40103;Laerm;25814;48.550;9.108;2023-02-01T06:34:05;40.52;35.66;51.89;;
40103;Laerm;25814;48.550;9.108;2023-02-01T06:36:32;49.88;35.29;75.32;;
40103;Laerm;25814;48.550;9.108;2023-02-01T06:38:58;41.29;38.01;50.37;;
40103;Laerm;25814;48.550;9.108;2023-02-01T06:41:25;39.98;36.58;49.37;;
40103;Laerm;25814;48.550;9.108;2023-02-01T06:43:52;39.18;35.26;47.12;;
40103;Laerm;25814;48.550;9.108;2023-02-01T06:46:18;41.90;36.08;55.43;;
40103;Laerm;25814;48.550;9.108;2023-02-01T06:48:44;42.81;35.43;60.64;;
40103;Laerm;25814;48.550;9.108;2023-02-01T06:51:26;39.67;36.42;51.35;;
40103;Laerm;25814;48.550;9.108;2023-02-01T06:53:54;43.86;36.49;60.10;;
40103;Laerm;25814;48.550;9.108;2023-02-01T06:56:21;40.90;35.35;58.06;;
40103;Laerm;25814;48.550;9.108;2023-02-01T06:58:48;39.97;36.13;58.58;;
40103;Laerm;25814;48.550;9.108;2023-02-01T07:01:16;40.19;36.57;54.81;;
40103;Laerm;25814;48.550;9.108;2023-02-01T07:03:46;40.25;36.56;45.31;;
40103;Laerm;25814;48.550;9.108;2023-02-01T07:06:12;53.96;36.86;71.39;;
40103;Laerm;25814;48.550;9.108;2023-02-01T07:08:38;38.18;35.73;44.68;;
40103;Laerm;25814;48.550;9.108;2023-02-01T07:11:10;41.10;36.04;63.36;;
40103;Laerm;25814;48.550;9.108;2023-02-01T07:13:37;42.27;36.30;61.44;;
40103;Laerm;25814;48.550;9.108;2023-02-01T07:16:16;43.47;35.83;58.60;;
40103;Laerm;25814;48.550;9.108;2023-02-01T07:18:43;41.60;34.63;64.30;;
40103;Laerm;25814;48.550;9.108;2023-02-01T07:21:09;38.26;34.53;50.78;;
40103;Laerm;25814;48.550;9.108;2023-02-01T07:23:37;38.46;34.94;48.52;;
40103;Laerm;25814;48.550;9.108;2023-02-01T07:26:06;39.33;35.86;49.73;;
40103;Laerm;25814;48.550;9.108;2023-02-01T07:28:35;39.09;35.79;50.71;;
40103;Laerm;25814;48.550;9.108;2023-02-01T07:31:11;40.35;36.25;52.04;;
40103;Laerm;25814;48.550;9.108;2023-02-01T07:33:39;39.37;35.15;49.44;;
40103;Laerm;25814;48.550;9.108;2023-02-01T07:36:10;42.18;35.22;65.17;;
40103;Laerm;25814;48.550;9.108;2023-02-01T07:38:36;39.17;36.13;49.60;;
40103;Laerm;25814;48.550;9.108;2023-02-01T07:41:05;38.76;35.35;55.95;;
40103;Laerm;25814;48.550;9.108;2023-02-01T07:43:32;40.09;35.62;49.69;;
40103;Laerm;25814;48.550;9.108;2023-02-01T07:45:59;39.09;35.82;48.80;;
40103;Laerm;25814;48.550;9.108;2023-02-01T07:48:26;41.97;36.49;60.38;;
40103;Laerm;25814;48.550;9.108;2023-02-01T07:51:09;42.76;35.22;56.77;;
40103;Laerm;25814;48.550;9.108;2023-02-01T07:53:37;41.21;35.62;61.31;;
40103;Laerm;25814;48.550;9.108;2023-02-01T07:56:08;38.85;35.25;47.58;;
40103;Laerm;25814;48.550;9.108;2023-02-01T07:58:36;38.93;35.48;54.99;;
40103;Laerm;25814;48.550;9.108;2023-02-01T08:01:02;39.43;36.17;47.77;;
40103;Laerm;25814;48.550;9.108;2023-02-01T08:04:04;39.92;35.70;48.54;;
40103;Laerm;25814;48.550;9.108;2023-02-01T08:06:33;38.30;35.11;46.81;;
40103;Laerm;25814;48.550;9.108;2023-02-01T08:09:01;40.36;35.66;55.61;;
40103;Laerm;25814;48.550;9.108;2023-02-01T08:11:27;38.33;36.08;41.41;;
40103;Laerm;25814;48.550;9.108;2023-02-01T08:13:54;38.25;36.13;45.52;;
40103;Laerm;25814;48.550;9.108;2023-02-01T08:16:22;38.42;35.27;58.17;;
40103;Laerm;25814;48.550;9.108;2023-02-01T08:18:49;40.81;34.05;58.78;;
40103;Laerm;25814;48.550;9.108;2023-02-01T08:21:21;42.00;35.67;56.66;;
40103;Laerm;25814;48.550;9.108;2023-02-01T08:23:47;37.54;34.45;46.54;;
40103;Laerm;25814;48.550;9.108;2023-02-01T08:26:16;35.94;33.82;40.68;;
40103;Laerm;25814;48.550;9.108;2023-02-01T08:28:47;39.23;34.23;52.28;;
40103;Laerm;25814;48.550;9.108;2023-02-01T08:31:17;36.58;34.55;45.89;;
40103;Laerm;25814;48.550;9.108;2023-02-01T08:33:49;36.67;34.63;41.09;;
40103;Laerm;25814;48.550;9.108;2023-02-01T08:36:16;36.79;33.93;46.14;;
40103;Laerm;25814;48.550;9.108;2023-02-01T08:38:43;35.94;33.12;46.19;;
40103;Laerm;25814;48.550;9.108;2023-02-01T08:41:14;35.61;33.39;42.85;;
40103;Laerm;25814;48.550;9.108;2023-02-01T08:43:42;42.34;34.42;59.39;;
40103;Laerm;25814;48.550;9.108;2023-02-01T08:46:09;36.62;33.82;49.34;;
40103;Laerm;25814;48.550;9.108;2023-02-01T08:48:37;38.11;35.11;46.25;;
40103;Laerm;25814;48.550;9.108;2023-02-01T08:51:11;41.64;34.18;60.63;;
40103;Laerm;25814;48.550;9.108;2023-02-01T08:53:38;37.32;34.16;46.18;;
40103;Laerm;25814;48.550;9.108;2023-02-01T08:56:07;38.53;35.13;48.86;;
40103;Laerm;25814;48.550;9.108;2023-02-01T08:58:34;39.17;33.56;53.60;;
40103;Laerm;25814;48.550;9.108;2023-02-01T09:01:11;44.29;34.85;65.04;;
40103;Laerm;25814;48.550;9.108;2023-02-01T09:03:39;36.99;33.84;47.20;;
40103;Laerm;25814;48.550;9.108;2023-02-01T09:06:10;38.73;34.96;47.91;;
40103;Laerm;25814;48.550;9.108;2023-02-01T09:08:38;39.36;33.60;53.28;;
40103;Laerm;25814;48.550;9.108;2023-02-01T09:11:10;39.64;33.73;57.01;;
40103;Laerm;25814;48.550;9.108;2023-02-01T09:13:37;35.75;33.21;46.56;;
40103;Laerm;25814;48.550;9.108;2023-02-01T09:16:04;37.14;34.10;50.54;;
40103;Laerm;25814;48.550;9.108;2023-02-01T09:18:30;37.67;34.86;49.78;;
40103;Laerm;25814;48.550;9.108;2023-02-01T09:20:56;42.85;33.59;58.19;;
40103;Laerm;25814;48.550;9.108;2023-02-01T09:23:23;40.20;33.54;55.89;;
40103;Laerm;25814;48.550;9.108;2023-02-01T09:25:49;38.15;34.27;51.97;;
40103;Laerm;25814;48.550;9.108;2023-02-01T09:28:18;37.61;34.34;51.56;;
40103;Laerm;25814;48.550;9.108;2023-02-01T09:30:44;37.48;33.25;48.03;;
40103;Laerm;25814;48.550;9.108;2023-02-01T09:33:10;36.99;33.43;49.98;;
40103;Laerm;25814;48.550;9.108;2023-02-01T09:35:37;40.33;33.49;59.13;;
40103;Laerm;25814;48.550;9.108;2023-02-01T09:38:03;38.99;33.34;55.80;;
40103;Laerm;25814;48.550;9.108;2023-02-01T09:40:29;36.69;34.25;48.83;;
40103;Laerm;25814;48.550;9.108;2023-02-01T09:48:35;38.22;34.13;47.57;;
40103;Laerm;25814;48.550;9.108;2023-02-01T09:51:25;37.17;34.88;44.47;;
40103;Laerm;25814;48.550;9.108;2023-02-01T09:54:22;38.20;34.35;52.17;;
40103;Laerm;25814;48.550;9.108;2023-02-01T09:57:01;37.50;33.41;48.59;;
40103;Laerm;25814;48.550;9.108;2023-02-01T09:59:46;37.25;33.62;50.63;;
40103;Laerm;25814;48.550;9.108;2023-02-01T10:02:25;38.66;34.56;57.56;;
40103;Laerm;25814;48.550;9.108;2023-02-01T10:04:57;51.99;33.17;75.83;;
40103;Laerm;25814;48.550;9.108;2023-02-01T10:07:37;37.14;32.98;50.82;;
40103;Laerm;25814;48.550;9.108;2023-02-01T10:10:21;36.71;32.56;60.89;;
40103;Laerm;25814;48.550;9.108;2023-02-01T10:18:57;37.23;32.79;52.48;;
40103;Laerm;25814;48.550;9.108;2023-02-01T10:24:47;37.89;33.83;58.18;;
40103;Laerm;25814;48.550;9.108;2023-02-01T10:27:34;36.53;32.50;48.39;;
40103;Laerm;25814;48.550;9.108;2023-02-01T10:30:18;35.77;33.00;48.73;;
40103;Laerm;25814;48.550;9.108;2023-02-01T10:32:45;35.50;32.66;42.60;;
40103;Laerm;25814;48.550;9.108;2023-02-01T10:35:35;36.00;33.09;43.23;;
40103;Laerm;25814;48.550;9.108;2023-02-01T10:38:26;37.63;32.57;49.17;;
40103;Laerm;25814;48.550;9.108;2023-02-01T10:41:00;36.62;32.75;54.17;;
40103;Laerm;25814;48.550;9.108;2023-02-01T10:43:28;36.32;32.59;49.44;;
40103;Laerm;25814;48.550;9.108;2023-02-01T10:45:54;37.07;32.55;51.04;;
40103;Laerm;25814;48.550;9.108;2023-02-01T10:48:20;39.12;33.97;50.14;;
40103;Laerm;25814;48.550;9.108;2023-02-01T10:54:01;38.40;32.48;57.64;;
40103;Laerm;25814;48.550;9.108;2023-02-01T10:56:29;36.09;32.48;49.59;;
40103;Laerm;25814;48.550;9.108;2023-02-01T10:59:18;37.91;33.84;49.48;;
40103;Laerm;25814;48.550;9.108;2023-02-01T11:01:48;37.65;32.87;47.60;;
40103;Laerm;25814;48.550;9.108;2023-02-01T11:04:19;36.27;31.95;50.38;;
40103;Laerm;25814;48.550;9.108;2023-02-01T11:07:05;35.16;32.07;47.08;;
40103;Laerm;25814;48.550;9.108;2023-02-01T11:09:39;38.31;33.59;56.99;;
40103;Laerm;25814;48.550;9.108;2023-02-01T11:15:03;35.64;32.85;42.84;;
40103;Laerm;25814;48.550;9.108;2023-02-01T11:17:50;35.30;32.55;42.36;;
40103;Laerm;25814;48.550;9.108;2023-02-01T11:20:38;36.86;33.01;50.78;;
40103;Laerm;25814;48.550;9.108;2023-02-01T11:23:20;37.45;33.15;45.69;;
40103;Laerm;25814;48.550;9.108;2023-02-01T11:26:01;36.67;33.42;49.00;;
40103;Laerm;25814;48.550;9.108;2023-02-01T11:28:33;35.72;33.14;44.20;;
40103;Laerm;25814;48.550;9.108;2023-02-01T11:31:09;43.93;32.79;59.39;;
40103;Laerm;25814;48.550;9.108;2023-02-01T11:33:42;36.68;33.66;45.45;;
40103;Laerm;25814;48.550;9.108;2023-02-01T11:36:17;35.77;33.29;43.13;;
40103;Laerm;25814;48.550;9.108;2023-02-01T11:39:18;37.42;33.55;49.75;;
40103;Laerm;25814;48.550;9.108;2023-02-01T11:42:13;35.47;32.43;41.98;;
40103;Laerm;25814;48.550;9.108;2023-02-01T11:44:46;37.91;34.81;53.11;;
40103;Laerm;25814;48.550;9.108;2023-02-01T11:49:46;35.68;33.08;41.97;;
40103;Laerm;25814;48.550;9.108;2023-02-01T11:58:20;38.33;33.07;63.62;;
40103;Laerm;25814;48.550;9.108;2023-02-01T12:01:18;36.47;33.16;45.20;;
40103;Laerm;25814;48.550;9.108;2023-02-01T12:06:53;48.45;32.98;69.92;;
40103;Laerm;25814;48.550;9.108;2023-02-01T12:16:02;36.25;32.81;47.38;;
40103;Laerm;25814;48.550;9.108;2023-02-01T12:22:15;37.95;33.58;49.92;;
40103;Laerm;25814;48.550;9.108;2023-02-01T12:25:21;38.74;33.86;59.00;;
40103;Laerm;25814;48.550;9.108;2023-02-01T12:30:39;38.48;34.72;48.70;;
40103;Laerm;25814;48.550;9.108;2023-02-01T12:33:35;39.11;34.72;56.03;;
40103;Laerm;25814;48.550;9.108;2023-02-01T12:36:25;37.14;34.19;48.95;;
40103;Laerm;25814;48.550;9.108;2023-02-01T12:41:57;37.68;33.67;46.11;;
40103;Laerm;25814;48.550;9.108;2023-02-01T12:47:24;37.22;33.64;49.52;;
40103;Laerm;25814;48.550;9.108;2023-02-01T12:52:51;37.49;33.91;47.15;;
40103;Laerm;25814;48.550;9.108;2023-02-01T12:55:41;39.07;33.39;50.29;;
40103;Laerm;25814;48.550;9.108;2023-02-01T12:58:26;38.01;33.10;52.10;;
40103;Laerm;25814;48.550;9.108;2023-02-01T13:01:00;40.28;32.19;65.66;;
40103;Laerm;25814;48.550;9.108;2023-02-01T13:04:01;38.98;33.65;54.65;;
40103;Laerm;25814;48.550;9.108;2023-02-01T13:06:49;37.08;33.63;45.69;;
40103;Laerm;25814;48.550;9.108;2023-02-01T13:09:30;37.22;33.45;47.62;;
40103;Laerm;25814;48.550;9.108;2023-02-01T13:12:29;37.67;33.66;48.12;;
40103;Laerm;25814;48.550;9.108;2023-02-01T13:15:05;47.30;33.48;69.64;;
40103;Laerm;25814;48.550;9.108;2023-02-01T13:17:40;40.45;34.21;58.89;;
40103;Laerm;25814;48.550;9.108;2023-02-01T13:22:41;38.67;34.28;56.57;;
40103;Laerm;25814;48.550;9.108;2023-02-01T13:28:11;38.64;34.14;53.94;;
40103;Laerm;25814;48.550;9.108;2023-02-01T13:31:03;40.52;33.41;59.84;;
40103;Laerm;25814;48.550;9.108;2023-02-01T13:36:46;48.89;33.33;58.83;;
40103;Laerm;25814;48.550;9.108;2023-02-01T13:42:26;38.77;33.22;60.56;;
40103;Laerm;25814;48.550;9.108;2023-02-01T13:44:59;40.35;33.06;60.55;;
40103;Laerm;25814;48.550;9.108;2023-02-01T13:47:40;43.87;32.85;56.64;;
40103;Laerm;25814;48.550;9.108;2023-02-01T13:50:32;46.34;32.88;55.62;;
40103;Laerm;25814;48.550;9.108;2023-02-01T13:53:18;46.30;33.49;59.71;;
40103;Laerm;25814;48.550;9.108;2023-02-01T13:56:01;38.39;33.80;55.13;;
40103;Laerm;25814;48.550;9.108;2023-02-01T13:58:38;52.53;33.37;59.01;;
40103;Laerm;25814;48.550;9.108;2023-02-01T14:11:52;48.59;34.19;58.60;;
40103;Laerm;25814;48.550;9.108;2023-02-01T14:19:32;44.16;32.91;55.73;;
40103;Laerm;25814;48.550;9.108;2023-02-01T14:24:56;37.42;34.10;47.17;;
40103;Laerm;25814;48.550;9.108;2023-02-01T14:27:27;40.88;35.52;53.22;;
40103;Laerm;25814;48.550;9.108;2023-02-01T14:30:05;46.89;33.45;58.98;;
40103;Laerm;25814;48.550;9.108;2023-02-01T14:32:40;38.60;33.29;60.38;;
40103;Laerm;25814;48.550;9.108;2023-02-01T14:35:26;37.55;33.13;56.12;;
40103;Laerm;25814;48.550;9.108;2023-02-01T14:38:00;38.27;33.77;51.87;;
40103;Laerm;25814;48.550;9.108;2023-02-01T14:40:33;50.85;34.25;56.58;;
40103;Laerm;25814;48.550;9.108;2023-02-01T14:43:01;51.68;34.06;63.18;;
40103;Laerm;25814;48.550;9.108;2023-02-01T14:55:59;50.18;33.10;59.42;;
40103;Laerm;25814;48.550;9.108;2023-02-01T14:58:57;40.93;33.82;57.68;;
40103;Laerm;25814;48.550;9.108;2023-02-01T15:01:35;52.77;33.86;66.95;;
40103;Laerm;25814;48.550;9.108;2023-02-01T15:04:18;41.13;34.75;62.37;;
40103;Laerm;25814;48.550;9.108;2023-02-01T15:07:05;44.54;33.42;55.91;;
40103;Laerm;25814;48.550;9.108;2023-02-01T15:09:42;43.91;33.16;65.42;;
40103;Laerm;25814;48.550;9.108;2023-02-01T15:15:22;37.75;34.44;47.62;;
40103;Laerm;25814;48.550;9.108;2023-02-01T15:17:55;39.12;33.95;49.77;;
40103;Laerm;25814;48.550;9.108;2023-02-01T15:20:29;39.99;33.64;60.72;;
40103;Laerm;25814;48.550;9.108;2023-02-01T15:23:05;38.38;33.14;60.86;;
40103;Laerm;25814;48.550;9.108;2023-02-01T15:25:37;39.48;34.47;57.00;;
40103;Laerm;25814;48.550;9.108;2023-02-01T15:28:05;38.96;34.42;54.90;;
40103;Laerm;25814;48.550;9.108;2023-02-01T15:30:36;41.07;33.71;61.61;;
40103;Laerm;25814;48.550;9.108;2023-02-01T15:33:16;37.30;33.98;49.69;;
40103;Laerm;25814;48.550;9.108;2023-02-01T15:35:54;37.81;33.88;49.91;;
40103;Laerm;25814;48.550;9.108;2023-02-01T15:38:32;38.74;34.47;56.23;;
40103;Laerm;25814;48.550;9.108;2023-02-01T15:41:14;38.80;33.41;55.91;;
40103;Laerm;25814;48.550;9.108;2023-02-01T15:44:09;37.67;33.55;51.78;;
40103;Laerm;25814;48.550;9.108;2023-02-01T15:46:45;36.26;32.93;44.83;;
40103;Laerm;25814;48.550;9.108;2023-02-01T15:49:31;38.96;35.37;52.32;;
40103;Laerm;25814;48.550;9.108;2023-02-01T15:52:00;35.86;33.14;44.71;;
40103;Laerm;25814;48.550;9.108;2023-02-01T15:54:46;39.25;32.87;55.12;;
40103;Laerm;25814;48.550;9.108;2023-02-01T15:57:35;39.62;33.43;53.35;;
40103;Laerm;25814;48.550;9.108;2023-02-01T16:00:08;40.44;33.74;60.88;;
40103;Laerm;25814;48.550;9.108;2023-02-01T16:08:19;37.15;33.05;56.18;;
40103;Laerm;25814;48.550;9.108;2023-02-01T16:10:51;35.44;32.33;42.67;;
40103;Laerm;25814;48.550;9.108;2023-02-01T16:13:20;35.94;33.23;47.93;;
40103;Laerm;25814;48.550;9.108;2023-02-01T16:15:47;36.87;33.82;48.10;;
40103;Laerm;25814;48.550;9.108;2023-02-01T16:18:15;36.17;32.51;53.01;;
40103;Laerm;25814;48.550;9.108;2023-02-01T16:20:42;36.12;33.39;50.70;;
40103;Laerm;25814;48.550;9.108;2023-02-01T16:23:10;56.22;33.32;76.85;;
40103;Laerm;25814;48.550;9.108;2023-02-01T16:25:37;37.36;34.23;48.63;;
40103;Laerm;25814;48.550;9.108;2023-02-01T16:28:03;36.46;32.65;50.99;;
40103;Laerm;25814;48.550;9.108;2023-02-01T16:30:34;36.88;32.90;47.83;;